createdAt,value
2023-05-06T03:59:09.295Z,1010.83
2023-05-06T04:00:09.200Z,1010.80
2023-05-06T04:01:09.174Z,1010.81
2023-05-06T04:02:09.242Z,1010.78
2023-05-06T04:03:09.270Z,1010.79
2023-05-06T04:04:09.268Z,1010.79
2023-05-06T04:05:09.276Z,1010.72
2023-05-06T04:06:09.141Z,1010.71
2023-05-06T04:07:09.153Z,1010.72
2023-05-06T04:08:09.127Z,1010.72
2023-05-06T04:09:09.170Z,1010.72
2023-05-06T04:10:09.141Z,1010.73
2023-05-06T04:11:09.107Z,1010.75
2023-05-06T04:12:09.119Z,1010.74
2023-05-06T04:13:09.130Z,1010.75
2023-05-06T04:14:09.087Z,1010.73
2023-05-06T04:15:09.428Z,1010.78
2023-05-06T04:16:09.123Z,1010.77
2023-05-06T04:17:09.080Z,1010.76
2023-05-06T04:18:09.153Z,1010.76
2023-05-06T04:19:09.075Z,1010.76
2023-05-06T04:20:09.092Z,1010.79
2023-05-06T04:21:09.085Z,1010.81
2023-05-06T04:22:09.063Z,1010.84
2023-05-06T04:23:09.081Z,1010.82
2023-05-06T04:24:09.058Z,1010.79
2023-05-06T04:25:09.319Z,1010.85
2023-05-06T04:26:09.083Z,1010.88
2023-05-06T04:27:09.052Z,1010.88
2023-05-06T04:28:09.064Z,1010.88
2023-05-06T04:29:09.072Z,1010.90
2023-05-06T04:30:09.031Z,1010.93
2023-05-06T04:31:09.038Z,1010.91
2023-05-06T04:32:09.040Z,1010.91
2023-05-06T04:33:09.060Z,1010.91
2023-05-06T04:34:09.022Z,1010.91
2023-05-06T04:35:09.297Z,1010.92
2023-05-06T04:36:09.006Z,1010.92
2023-05-06T04:37:09.062Z,1010.93
2023-05-06T04:38:08.999Z,1010.92
2023-05-06T04:39:09.064Z,1010.95
2023-05-06T04:40:09.007Z,1010.92
2023-05-06T04:41:09.013Z,1010.94
2023-05-06T04:42:09.004Z,1010.95
2023-05-06T04:43:09.001Z,1010.95
2023-05-06T04:44:09.016Z,1010.97
2023-05-06T04:45:09.251Z,1010.97
2023-05-06T04:46:09.001Z,1010.95
2023-05-06T04:47:09.091Z,1011.00
2023-05-06T04:48:09.047Z,1010.94
2023-05-06T04:49:10.365Z,1010.92
2023-05-06T04:50:08.962Z,1010.95
2023-05-06T04:51:08.946Z,1010.94
2023-05-06T04:52:08.953Z,1010.94
2023-05-06T04:53:08.971Z,1010.94
2023-05-06T04:54:08.946Z,1010.94
2023-05-06T04:55:09.194Z,1010.92
2023-05-06T04:56:08.943Z,1010.97
2023-05-06T04:57:08.947Z,1010.97
2023-05-06T04:58:08.935Z,1010.97
2023-05-06T04:59:08.967Z,1010.97
2023-05-06T05:00:09.177Z,1010.98
2023-05-06T05:01:08.984Z,1011.02
2023-05-06T05:02:08.933Z,1011.02
2023-05-06T05:03:09.101Z,1011.04
2023-05-06T05:04:08.910Z,1011.03
2023-05-06T05:05:09.066Z,1011.04
2023-05-06T05:06:08.906Z,1011.11
2023-05-06T05:07:08.927Z,1011.10
2023-05-06T05:08:08.923Z,1011.17
2023-05-06T05:09:08.909Z,1011.16
2023-05-06T05:10:08.890Z,1011.20
2023-05-06T05:11:08.876Z,1011.21
2023-05-06T05:12:08.893Z,1011.23
2023-05-06T05:13:08.939Z,1011.29
2023-05-06T05:14:08.895Z,1011.28
2023-05-06T05:15:09.293Z,1011.30
2023-05-06T05:16:08.869Z,1011.32
2023-05-06T05:17:08.981Z,1011.37
2023-05-06T05:18:09.050Z,1011.36
2023-05-06T05:19:09.630Z,1011.33
2023-05-06T05:20:08.870Z,1011.33
2023-05-06T05:21:08.839Z,1011.33
2023-05-06T05:22:08.848Z,1011.31
2023-05-06T05:23:08.880Z,1011.26
2023-05-06T05:24:08.841Z,1011.30
2023-05-06T05:25:08.895Z,1011.32
2023-05-06T05:26:08.860Z,1011.35
2023-05-06T05:27:08.828Z,1011.33
2023-05-06T05:28:08.831Z,1011.36
2023-05-06T05:29:08.844Z,1011.36
2023-05-06T05:30:08.880Z,1011.36
2023-05-06T05:31:10.502Z,1011.37
2023-05-06T05:32:08.836Z,1011.38
2023-05-06T05:33:08.976Z,1011.41
2023-05-06T05:34:08.802Z,1011.38
2023-05-06T05:35:08.999Z,1011.41
2023-05-06T05:36:08.811Z,1011.41
2023-05-06T05:37:08.833Z,1011.43
2023-05-06T05:38:08.804Z,1011.43
2023-05-06T05:39:08.801Z,1011.42
2023-05-06T05:40:08.849Z,1011.48
2023-05-06T05:41:08.788Z,1011.47
2023-05-06T05:42:08.771Z,1011.46
2023-05-06T05:43:08.807Z,1011.47
2023-05-06T05:44:08.785Z,1011.47
2023-05-06T05:45:08.980Z,1011.48
2023-05-06T05:46:08.788Z,1011.48
2023-05-06T05:47:08.781Z,1011.49
2023-05-06T05:48:08.765Z,1011.46
2023-05-06T05:49:08.770Z,1011.48
2023-05-06T05:50:08.788Z,1011.45
2023-05-06T05:51:08.850Z,1011.45
2023-05-06T05:52:08.743Z,1011.44
2023-05-06T05:53:08.741Z,1011.40
2023-05-06T05:54:08.761Z,1011.43
2023-05-06T05:55:09.037Z,1011.45
2023-05-06T05:56:08.781Z,1011.45
2023-05-06T05:57:08.729Z,1011.48
2023-05-06T05:58:08.724Z,1011.51
2023-05-06T05:59:08.797Z,1011.46
2023-05-06T06:00:08.748Z,1011.48
2023-05-06T06:01:08.733Z,1011.41
2023-05-06T06:02:08.735Z,1011.42
2023-05-06T06:03:08.863Z,1011.45
2023-05-06T06:04:08.778Z,1011.44
2023-05-06T06:05:08.906Z,1011.44
2023-05-06T06:06:08.779Z,1011.44
2023-05-06T06:07:08.867Z,1011.44
2023-05-06T06:08:08.698Z,1011.44
2023-05-06T06:09:08.708Z,1011.45
2023-05-06T06:10:08.760Z,1011.46
2023-05-06T06:11:08.712Z,1011.46
2023-05-06T06:12:08.720Z,1011.47
2023-05-06T06:13:08.791Z,1011.47
2023-05-06T06:14:08.675Z,1011.53
2023-05-06T06:15:08.992Z,1011.53
2023-05-06T06:16:08.737Z,1011.58
2023-05-06T06:17:08.739Z,1011.53
2023-05-06T06:18:08.725Z,1011.59
2023-05-06T06:19:08.674Z,1011.60
2023-05-06T06:20:08.679Z,1011.61
2023-05-06T06:21:08.692Z,1011.62
2023-05-06T06:22:08.683Z,1011.64
2023-05-06T06:23:08.992Z,1011.67
2023-05-06T06:24:08.700Z,1011.68
2023-05-06T06:25:09.012Z,1011.66
2023-05-06T06:27:41.174Z,1011.63
2023-05-06T06:28:41.169Z,1011.62
2023-05-06T06:29:41.162Z,1011.59
2023-05-06T06:30:41.158Z,1011.62
2023-05-06T06:31:41.197Z,1011.61
2023-05-06T06:32:41.181Z,1011.63
2023-05-06T06:33:41.173Z,1011.61
2023-05-06T06:34:41.157Z,1011.62
2023-05-06T06:35:41.150Z,1011.62
2023-05-06T06:36:41.147Z,1011.64
2023-05-06T06:37:41.137Z,1011.62
2023-05-06T06:38:41.157Z,1011.60
2023-05-06T06:39:41.158Z,1011.59
2023-05-06T06:40:41.148Z,1011.56
2023-05-06T06:41:41.175Z,1011.55
2023-05-06T06:42:41.148Z,1011.57
2023-05-06T06:43:41.152Z,1011.58
2023-05-06T06:44:41.145Z,1011.60
2023-05-06T06:45:41.175Z,1011.63
2023-05-06T06:46:41.141Z,1011.60
2023-05-06T06:47:41.178Z,1011.63
2023-05-06T06:48:41.123Z,1011.63
2023-05-06T06:49:41.117Z,1011.61
2023-05-06T06:50:41.116Z,1011.58
2023-05-06T06:51:41.134Z,1011.58
2023-05-06T06:52:41.201Z,1011.59
2023-05-06T06:53:41.134Z,1011.56
2023-05-06T06:54:41.247Z,1011.59
2023-05-06T06:55:41.108Z,1011.56
2023-05-06T06:56:41.155Z,1011.61
2023-05-06T06:57:41.141Z,1011.62
2023-05-06T06:58:41.123Z,1011.65
2023-05-06T06:59:41.115Z,1011.66
2023-05-06T07:00:41.106Z,1011.64
2023-05-06T07:01:41.171Z,1011.65
2023-05-06T07:02:41.224Z,1011.67
2023-05-06T07:03:41.102Z,1011.69
2023-05-06T07:04:41.185Z,1011.64
2023-05-06T07:05:41.154Z,1011.67
2023-05-06T07:06:41.128Z,1011.73
2023-05-06T07:07:41.136Z,1011.73
2023-05-06T07:08:41.103Z,1011.69
2023-05-06T07:09:41.088Z,1011.73
2023-05-06T07:10:41.115Z,1011.74
2023-05-06T07:11:41.101Z,1011.74
2023-05-06T07:12:41.145Z,1011.72
2023-05-06T07:13:41.091Z,1011.73
2023-05-06T07:14:41.085Z,1011.74
2023-05-06T07:15:41.123Z,1011.78
2023-05-06T07:16:41.867Z,1011.79
2023-05-06T07:17:41.149Z,1011.83
2023-05-06T07:18:41.106Z,1011.83
2023-05-06T07:19:41.159Z,1011.86
2023-05-06T07:20:41.141Z,1011.84
2023-05-06T07:21:41.097Z,1011.85
2023-05-06T07:22:41.228Z,1011.86
2023-05-06T07:23:41.087Z,1011.88
2023-05-06T07:24:41.084Z,1011.88
2023-05-06T07:25:41.093Z,1011.91
2023-05-06T07:26:41.342Z,1011.93
2023-05-06T07:27:41.090Z,1011.95
2023-05-06T07:28:41.120Z,1011.94
2023-05-06T07:29:41.085Z,1011.97
2023-05-06T07:30:41.078Z,1011.97
2023-05-06T07:31:41.071Z,1011.96
2023-05-06T07:32:41.118Z,1011.98
2023-05-06T07:33:41.081Z,1011.97
2023-05-06T07:34:41.107Z,1011.94
2023-05-06T07:35:41.103Z,1011.93
2023-05-06T07:36:41.079Z,1011.96
2023-05-06T07:37:41.085Z,1011.91
2023-05-06T07:38:41.077Z,1011.96
2023-05-06T07:39:41.081Z,1011.96
2023-05-06T07:40:41.088Z,1011.96
2023-05-06T07:41:41.075Z,1011.96
2023-05-06T07:42:42.814Z,1011.99
2023-05-06T07:43:41.079Z,1011.97
2023-05-06T07:44:41.108Z,1012.02
2023-05-06T07:45:41.090Z,1011.99
2023-05-06T07:46:41.116Z,1012.01
2023-05-06T07:47:41.174Z,1011.98
2023-05-06T07:48:41.082Z,1012.03
2023-05-06T07:49:41.093Z,1012.03
2023-05-06T07:50:41.090Z,1012.01
2023-05-06T07:51:41.051Z,1012.05
2023-05-06T07:52:41.070Z,1012.06
2023-05-06T07:53:41.063Z,1012.05
2023-05-06T07:54:41.077Z,1012.05
2023-05-06T07:55:41.085Z,1012.02
2023-05-06T07:56:41.067Z,1012.04
2023-05-06T07:57:41.075Z,1012.05
2023-05-06T07:58:41.215Z,1012.07
2023-05-06T07:59:41.068Z,1012.09
2023-05-06T08:00:41.069Z,1012.12
2023-05-06T08:01:41.081Z,1012.11
2023-05-06T08:02:41.145Z,1012.14
2023-05-06T08:03:41.153Z,1012.10
2023-05-06T08:04:41.116Z,1012.12
2023-05-06T08:05:41.097Z,1012.13
2023-05-06T08:06:41.078Z,1012.11
2023-05-06T08:07:41.067Z,1012.10
2023-05-06T08:08:41.092Z,1012.08
2023-05-06T08:09:41.064Z,1012.10
2023-05-06T08:10:41.077Z,1012.13
2023-05-06T08:11:41.053Z,1012.11
2023-05-06T08:12:41.098Z,1012.16
2023-05-06T08:13:41.079Z,1012.13
2023-05-06T08:14:41.187Z,1012.17
2023-05-06T08:15:41.069Z,1012.12
2023-05-06T08:16:41.179Z,1012.12
2023-05-06T08:17:41.115Z,1012.17
2023-05-06T08:18:41.066Z,1012.14
2023-05-06T08:19:41.075Z,1012.16
2023-05-06T08:20:41.065Z,1012.15
2023-05-06T08:21:41.062Z,1012.16
2023-05-06T08:22:41.073Z,1012.16
2023-05-06T08:23:41.063Z,1012.17
2023-05-06T08:24:41.071Z,1012.17
2023-05-06T08:25:41.074Z,1012.18
2023-05-06T08:26:41.049Z,1012.19
2023-05-06T08:27:41.059Z,1012.20
2023-05-06T08:28:41.081Z,1012.21
2023-05-06T08:29:41.071Z,1012.20
2023-05-06T08:30:41.194Z,1012.21
2023-05-06T08:31:41.201Z,1012.20
2023-05-06T08:32:41.105Z,1012.23
2023-05-06T08:33:41.085Z,1012.22
2023-05-06T08:34:41.049Z,1012.18
2023-05-06T08:35:41.083Z,1012.23
2023-05-06T08:36:41.120Z,1012.25
2023-05-06T08:37:41.054Z,1012.25
2023-05-06T08:38:41.060Z,1012.29
2023-05-06T08:39:41.068Z,1012.31
2023-05-06T08:40:41.064Z,1012.35
2023-05-06T08:41:41.053Z,1012.35
2023-05-06T08:42:41.104Z,1012.34
2023-05-06T08:43:41.088Z,1012.37
2023-05-06T08:44:41.061Z,1012.36
2023-05-06T08:45:41.110Z,1012.33
2023-05-06T08:46:41.074Z,1012.36
2023-05-06T08:47:41.133Z,1012.34
2023-05-06T08:48:41.070Z,1012.33
2023-05-06T08:49:41.101Z,1012.36
2023-05-06T08:50:41.120Z,1012.32
2023-05-06T08:51:41.063Z,1012.32
2023-05-06T08:52:41.064Z,1012.34
2023-05-06T08:53:41.054Z,1012.32
2023-05-06T08:54:41.092Z,1012.30
2023-05-06T08:55:41.066Z,1012.30
2023-05-06T08:56:41.082Z,1012.31
2023-05-06T08:57:41.076Z,1012.31
2023-05-06T08:58:41.057Z,1012.30
2023-05-06T08:59:41.077Z,1012.34
2023-05-06T09:00:41.090Z,1012.30
2023-05-06T09:01:41.141Z,1012.32
2023-05-06T09:02:43.065Z,1012.32
2023-05-06T09:03:41.097Z,1012.32
2023-05-06T09:04:41.070Z,1012.30
2023-05-06T09:05:41.091Z,1012.32
2023-05-06T09:06:41.188Z,1012.33
2023-05-06T09:07:41.063Z,1012.34
2023-05-06T09:08:41.110Z,1012.29
2023-05-06T09:09:41.063Z,1012.35
2023-05-06T09:10:41.082Z,1012.33
2023-05-06T09:11:41.102Z,1012.31
2023-05-06T09:12:41.088Z,1012.31
2023-05-06T09:13:41.084Z,1012.30
2023-05-06T09:14:41.073Z,1012.31
2023-05-06T09:15:41.096Z,1012.30
2023-05-06T09:16:41.171Z,1012.25
2023-05-06T09:17:41.091Z,1012.22
2023-05-06T09:18:41.167Z,1012.21
2023-05-06T09:19:41.085Z,1012.24
2023-05-06T09:20:41.126Z,1012.22
2023-05-06T09:21:41.129Z,1012.20
2023-05-06T09:22:41.098Z,1012.22
2023-05-06T09:23:41.113Z,1012.21
2023-05-06T09:24:41.116Z,1012.24
2023-05-06T09:25:41.102Z,1012.21
2023-05-06T09:26:41.110Z,1012.21
2023-05-06T09:27:41.128Z,1012.20
2023-05-06T09:28:41.085Z,1012.19
2023-05-06T09:29:41.098Z,1012.21
2023-05-06T09:30:41.131Z,1012.18
2023-05-06T09:31:41.112Z,1012.20
2023-05-06T09:32:41.147Z,1012.20
2023-05-06T09:33:41.146Z,1012.19
2023-05-06T09:34:41.172Z,1012.19
2023-05-06T09:35:41.141Z,1012.22
2023-05-06T09:36:41.104Z,1012.22
2023-05-06T09:37:41.094Z,1012.20
2023-05-06T09:38:41.104Z,1012.17
2023-05-06T09:39:41.122Z,1012.15
2023-05-06T09:40:41.124Z,1012.16
2023-05-06T09:41:41.168Z,1012.17
2023-05-06T09:42:41.115Z,1012.18
2023-05-06T09:43:41.123Z,1012.17
2023-05-06T09:44:41.133Z,1012.15
2023-05-06T09:45:41.135Z,1012.17
2023-05-06T09:46:41.357Z,1012.18
2023-05-06T09:47:41.180Z,1012.18
2023-05-06T09:48:41.210Z,1012.21
2023-05-06T09:51:13.860Z,1012.19
2023-05-06T09:52:13.685Z,1012.21
2023-05-06T09:53:13.688Z,1012.21
2023-05-06T09:54:13.692Z,1012.25
2023-05-06T09:55:13.685Z,1012.20
2023-05-06T09:56:13.703Z,1012.24
2023-05-06T09:57:13.681Z,1012.20
2023-05-06T09:58:13.682Z,1012.19
2023-05-06T09:59:13.685Z,1012.22
2023-05-06T10:00:13.689Z,1012.22
2023-05-06T10:01:19.180Z,1012.27
2023-05-06T10:02:13.742Z,1012.20
2023-05-06T10:13:33.696Z,1012.20
2023-05-06T10:14:33.522Z,1012.19
2023-05-06T10:15:33.518Z,1012.15
2023-05-06T10:16:33.546Z,1012.14
2023-05-06T10:17:33.560Z,1012.12
2023-05-06T10:18:33.523Z,1012.13
2023-05-06T10:19:33.500Z,1012.12
2023-05-06T10:20:33.506Z,1012.11
2023-05-06T10:21:33.505Z,1012.09
2023-05-06T10:22:33.525Z,1012.08
2023-05-06T10:23:33.516Z,1012.04
2023-05-06T10:24:33.513Z,1012.05
2023-05-06T10:25:33.512Z,1012.08
2023-05-06T10:26:33.523Z,1012.07
2023-05-06T10:27:33.538Z,1012.04
2023-05-06T10:28:33.577Z,1012.07
2023-05-06T10:29:33.642Z,1012.06
2023-05-06T10:30:33.539Z,1012.08
2023-05-06T10:31:33.552Z,1012.08
2023-05-06T10:32:33.548Z,1012.09
2023-05-06T10:33:33.556Z,1012.06
2023-05-06T10:34:33.525Z,1012.07
2023-05-06T10:35:33.532Z,1012.08
2023-05-06T10:36:33.552Z,1012.10
2023-05-06T10:37:33.574Z,1012.06
2023-05-06T10:38:33.556Z,1012.08
2023-05-06T10:39:33.531Z,1012.07
2023-05-06T10:40:33.585Z,1012.06
2023-05-06T10:41:33.545Z,1012.05
2023-05-06T10:42:33.574Z,1012.06
2023-05-06T10:43:33.551Z,1012.06
2023-05-06T10:44:33.540Z,1012.01
2023-05-06T10:45:33.683Z,1012.04
2023-05-06T10:46:33.547Z,1012.11
2023-05-06T10:47:33.564Z,1012.04
2023-05-06T10:48:33.551Z,1011.97
2023-05-06T10:49:33.558Z,1012.00
2023-05-06T10:50:33.647Z,1012.00
2023-05-06T10:51:33.584Z,1012.05
2023-05-06T10:52:33.565Z,1012.07
2023-05-06T10:53:33.607Z,1012.03
2023-05-06T10:54:33.566Z,1012.06
2023-05-06T10:55:33.563Z,1012.01
2023-05-06T10:56:33.643Z,1012.02
2023-05-06T10:57:33.567Z,1012.02
2023-05-06T10:58:33.575Z,1012.01
2023-05-06T10:59:33.575Z,1012.01
2023-05-06T11:00:33.578Z,1012.07
2023-05-06T11:01:33.794Z,1012.02
2023-05-06T11:02:33.669Z,1012.00
2023-05-06T11:03:33.773Z,1011.99
2023-05-06T11:04:33.640Z,1011.95
2023-05-06T11:05:33.593Z,1011.95
2023-05-06T11:06:33.621Z,1011.98
2023-05-06T11:07:33.607Z,1011.95
2023-05-06T11:08:33.604Z,1011.91
2023-05-06T11:09:33.609Z,1011.89
2023-05-06T11:10:33.619Z,1011.89
2023-05-06T11:11:33.618Z,1011.87
2023-05-06T11:12:33.634Z,1011.87
2023-05-06T11:13:33.681Z,1011.89
2023-05-06T11:14:33.623Z,1011.86
2023-05-06T11:15:33.647Z,1011.88
2023-05-06T11:16:33.658Z,1011.88
2023-05-06T11:17:33.906Z,1011.88
2023-05-06T11:18:33.710Z,1011.88
2023-05-06T11:19:33.661Z,1011.86
2023-05-06T11:20:33.657Z,1011.87
2023-05-06T11:21:33.646Z,1011.85
2023-05-06T11:22:33.656Z,1011.84
2023-05-06T11:23:33.694Z,1011.80
2023-05-06T11:24:33.658Z,1011.83
2023-05-06T11:25:33.695Z,1011.80
2023-05-06T11:26:33.678Z,1011.80
2023-05-06T11:27:33.671Z,1011.78
2023-05-06T11:28:33.675Z,1011.78
2023-05-06T11:29:33.680Z,1011.75
2023-05-06T11:30:33.730Z,1011.77
2023-05-06T11:31:33.772Z,1011.75
2023-05-06T11:32:33.737Z,1011.76
2023-05-06T11:33:33.782Z,1011.72
2023-05-06T11:34:33.704Z,1011.77
2023-05-06T11:35:33.702Z,1011.69
2023-05-06T11:36:33.727Z,1011.70
2023-05-06T11:37:33.755Z,1011.69
2023-05-06T11:38:33.717Z,1011.74
2023-05-06T11:39:39.930Z,1011.74
2023-05-06T11:40:33.727Z,1011.73
2023-05-06T11:41:33.758Z,1011.72
2023-05-06T11:42:33.742Z,1011.72
2023-05-06T11:43:33.745Z,1011.75
2023-05-06T11:44:33.744Z,1011.76
2023-05-06T11:45:33.763Z,1011.76
2023-05-06T11:46:33.827Z,1011.78
2023-05-06T11:47:33.796Z,1011.80
2023-05-06T11:48:33.829Z,1011.78
2023-05-06T11:49:36.185Z,1011.76
2023-05-06T11:50:33.788Z,1011.77
2023-05-06T11:51:33.824Z,1011.75
2023-05-06T11:52:33.790Z,1011.79
2023-05-06T11:53:33.778Z,1011.74
2023-05-06T11:54:33.809Z,1011.75
2023-05-06T11:55:33.808Z,1011.76
2023-05-06T11:56:33.822Z,1011.74
2023-05-06T11:57:33.815Z,1011.75
2023-05-06T11:58:33.797Z,1011.74
2023-05-06T11:59:33.816Z,1011.75
2023-05-06T12:00:33.836Z,1011.79
2023-05-06T12:01:33.912Z,1011.75
2023-05-06T12:02:33.898Z,1011.75
2023-05-06T12:03:33.993Z,1011.77
2023-05-06T12:04:33.865Z,1011.71
2023-05-06T12:05:33.889Z,1011.70
2023-05-06T12:06:33.867Z,1011.72
2023-05-06T12:07:33.878Z,1011.75
2023-05-06T12:08:33.888Z,1011.75
2023-05-06T12:09:33.880Z,1011.75
2023-05-06T12:10:33.891Z,1011.76
2023-05-06T12:11:33.883Z,1011.77
2023-05-06T12:12:33.917Z,1011.75
2023-05-06T12:13:33.922Z,1011.80
2023-05-06T12:14:33.930Z,1011.80
2023-05-06T12:15:33.917Z,1011.78
2023-05-06T12:16:33.961Z,1011.81
2023-05-06T12:17:33.948Z,1011.87
2023-05-06T12:18:33.968Z,1011.86
2023-05-06T12:19:34.020Z,1011.83
2023-05-06T12:20:33.957Z,1011.81
2023-05-06T12:21:34.084Z,1011.74
2023-05-06T12:22:33.971Z,1011.75
2023-05-06T12:23:34.086Z,1011.77
2023-05-06T12:24:33.981Z,1011.81
2023-05-06T12:25:33.987Z,1011.85
2023-05-06T12:26:33.982Z,1011.79
2023-05-06T12:27:33.993Z,1011.82
2023-05-06T12:28:34.043Z,1011.79
2023-05-06T12:29:34.008Z,1011.83
2023-05-06T12:30:34.015Z,1011.77
2023-05-06T12:31:34.055Z,1011.80
2023-05-06T12:32:34.065Z,1011.83
2023-05-06T12:33:34.053Z,1011.85
2023-05-06T12:34:34.063Z,1011.85
2023-05-06T12:35:34.063Z,1011.83
2023-05-06T12:36:34.071Z,1011.81
2023-05-06T12:37:34.181Z,1011.83
2023-05-06T12:38:34.095Z,1011.85
2023-05-06T12:39:34.102Z,1011.82
2023-05-06T12:40:34.097Z,1011.85
2023-05-06T12:41:34.110Z,1011.83
2023-05-06T12:42:34.097Z,1011.82
2023-05-06T12:43:34.159Z,1011.79
2023-05-06T12:44:34.216Z,1011.77
2023-05-06T12:45:34.138Z,1011.81
2023-05-06T12:46:34.206Z,1011.82
2023-05-06T12:47:34.152Z,1011.78
2023-05-06T12:48:34.141Z,1011.81
2023-05-06T12:49:34.170Z,1011.77
2023-05-06T12:50:34.170Z,1011.80
2023-05-06T12:51:34.232Z,1011.79
2023-05-06T12:52:34.182Z,1011.82
2023-05-06T12:53:34.199Z,1011.80
2023-05-06T12:54:34.212Z,1011.77
2023-05-06T12:55:34.179Z,1011.79
2023-05-06T12:56:34.191Z,1011.77
2023-05-06T12:57:34.208Z,1011.72
2023-05-06T12:58:34.203Z,1011.74
2023-05-06T12:59:34.193Z,1011.73
2023-05-06T13:00:34.234Z,1011.73
2023-05-06T13:01:34.292Z,1011.77
2023-05-06T13:02:34.265Z,1011.73
2023-05-06T13:06:06.840Z,1011.62
2023-05-06T13:07:06.804Z,1011.61
2023-05-06T13:08:06.787Z,1011.64
2023-05-06T13:09:06.873Z,1011.63
2023-05-06T13:10:06.840Z,1011.63
2023-05-06T13:11:06.802Z,1011.62
2023-05-06T13:12:06.811Z,1011.61
2023-05-06T13:13:06.921Z,1011.65
2023-05-06T13:14:06.817Z,1011.62
2023-05-06T13:15:06.845Z,1011.61
2023-05-06T13:16:06.881Z,1011.56
2023-05-06T13:17:07.125Z,1011.50
2023-05-06T13:18:06.864Z,1011.53
2023-05-06T13:19:08.217Z,1011.54
2023-05-06T13:20:06.986Z,1011.59
2023-05-06T13:21:06.878Z,1011.60
2023-05-06T13:22:06.930Z,1011.57
2023-05-06T13:23:06.879Z,1011.55
2023-05-06T13:24:06.891Z,1011.57
2023-05-06T13:25:06.980Z,1011.50
2023-05-06T13:26:06.909Z,1011.52
2023-05-06T13:27:06.933Z,1011.51
2023-05-06T13:28:06.930Z,1011.49
2023-05-06T13:29:06.938Z,1011.51
2023-05-06T13:30:06.968Z,1011.47
2023-05-06T13:31:07.059Z,1011.48
2023-05-06T13:32:08.638Z,1011.45
2023-05-06T13:33:06.974Z,1011.47
2023-05-06T13:34:06.971Z,1011.45
2023-05-06T13:35:07.042Z,1011.47
2023-05-06T13:36:07.029Z,1011.50
2023-05-06T13:37:06.987Z,1011.49
2023-05-06T13:38:07.102Z,1011.49
2023-05-06T13:39:09.084Z,1011.45
2023-05-06T13:40:07.024Z,1011.44
2023-05-06T13:41:07.207Z,1011.42
2023-05-06T13:42:08.448Z,1011.37
2023-05-06T13:43:07.049Z,1011.38
2023-05-06T13:44:07.090Z,1011.38
2023-05-06T13:45:07.065Z,1011.34
2023-05-06T13:46:07.118Z,1011.31
2023-05-06T13:47:07.091Z,1011.37
2023-05-06T13:48:07.102Z,1011.34
2023-05-06T13:49:07.118Z,1011.33
2023-05-06T13:50:07.104Z,1011.32
2023-05-06T13:51:07.110Z,1011.31
2023-05-06T13:52:08.282Z,1011.28
2023-05-06T13:53:07.117Z,1011.33
2023-05-06T13:54:07.144Z,1011.32
2023-05-06T13:55:07.166Z,1011.28
2023-05-06T13:56:07.145Z,1011.22
2023-05-06T13:57:07.157Z,1011.26
2023-05-06T13:58:07.171Z,1011.31
2023-05-06T13:59:07.197Z,1011.25
2023-05-06T14:00:07.250Z,1011.28
2023-05-06T14:01:07.231Z,1011.30
2023-05-06T14:02:09.385Z,1011.27
2023-05-06T14:03:07.231Z,1011.23
2023-05-06T14:04:07.224Z,1011.20
2023-05-06T14:05:07.266Z,1011.23
2023-05-06T14:06:07.237Z,1011.17
2023-05-06T14:07:07.244Z,1011.15
2023-05-06T14:08:07.238Z,1011.18
2023-05-06T14:09:07.249Z,1011.13
2023-05-06T14:10:07.297Z,1011.13
2023-05-06T14:11:07.301Z,1011.17
2023-05-06T14:12:07.274Z,1011.18
2023-05-06T14:13:07.452Z,1011.13
2023-05-06T14:14:07.289Z,1011.19
2023-05-06T14:15:07.436Z,1011.10
2023-05-06T14:16:07.420Z,1011.15
2023-05-06T14:17:07.408Z,1011.10
2023-05-06T14:18:07.482Z,1011.13
2023-05-06T14:19:07.346Z,1011.11
2023-05-06T14:20:07.401Z,1011.14
2023-05-06T14:21:07.381Z,1011.10
2023-05-06T14:22:07.401Z,1011.11
2023-05-06T14:23:07.446Z,1011.12
2023-05-06T14:24:08.050Z,1011.13
2023-05-06T14:25:07.442Z,1011.16
2023-05-06T14:26:07.460Z,1011.13
2023-05-06T14:27:07.589Z,1011.13
2023-05-06T14:28:07.466Z,1011.12
2023-05-06T14:29:07.645Z,1011.15
2023-05-06T14:30:09.424Z,1011.13
2023-05-06T14:31:07.467Z,1011.14
2023-05-06T14:32:07.510Z,1011.05
2023-05-06T14:33:07.567Z,1011.08
2023-05-06T14:34:07.460Z,1011.05
2023-05-06T14:35:07.526Z,1011.04
2023-05-06T14:36:07.487Z,1011.02
2023-05-06T14:37:07.476Z,1011.06
2023-05-06T14:38:07.529Z,1011.02
2023-05-06T14:39:07.525Z,1011.03
2023-05-06T14:40:07.515Z,1011.05
2023-05-06T14:41:07.568Z,1011.01
2023-05-06T14:42:07.544Z,1011.06
2023-05-06T14:43:07.603Z,1011.04
2023-05-06T14:44:07.574Z,1011.05
2023-05-06T14:45:07.752Z,1011.01
2023-05-06T14:46:07.646Z,1011.01
2023-05-06T14:47:07.575Z,1011.01
2023-05-06T14:48:07.749Z,1010.99
2023-05-06T14:49:07.602Z,1010.95
2023-05-06T14:50:07.612Z,1010.91
2023-05-06T14:51:07.653Z,1010.92
2023-05-06T14:52:07.626Z,1010.87
2023-05-06T14:53:07.640Z,1010.91
2023-05-06T14:54:07.653Z,1010.89
2023-05-06T14:55:07.755Z,1010.87
2023-05-06T14:56:07.663Z,1010.86
2023-05-06T14:57:07.645Z,1010.88
2023-05-06T14:58:07.661Z,1010.85
2023-05-06T14:59:07.669Z,1010.90
2023-05-06T15:00:07.676Z,1010.86
2023-05-06T15:01:07.830Z,1010.91
2023-05-06T15:02:07.699Z,1010.89
2023-05-06T15:03:07.835Z,1010.90
2023-05-06T15:04:07.696Z,1010.91
2023-05-06T15:05:07.743Z,1010.88
2023-05-06T15:06:07.826Z,1010.88
2023-05-06T15:07:07.719Z,1010.88
2023-05-06T15:08:07.721Z,1010.88
2023-05-06T15:09:07.753Z,1010.92
2023-05-06T15:10:07.754Z,1010.93
2023-05-06T15:11:07.772Z,1010.89
2023-05-06T15:12:07.760Z,1010.93
2023-05-06T15:13:07.848Z,1010.95
2023-05-06T15:14:07.765Z,1010.94
2023-05-06T15:15:07.817Z,1010.90
2023-05-06T15:16:10.495Z,1010.95
2023-05-06T15:17:07.976Z,1010.96
2023-05-06T15:18:07.887Z,1011.00
2023-05-06T15:19:07.825Z,1010.95
2023-05-06T15:20:07.824Z,1010.99
2023-05-06T15:21:07.837Z,1011.03
2023-05-06T15:22:07.845Z,1011.00
2023-05-06T15:23:07.844Z,1011.00
2023-05-06T15:24:07.831Z,1011.00
2023-05-06T15:25:09.502Z,1011.01
2023-05-06T15:26:07.852Z,1010.99
2023-05-06T15:27:07.885Z,1011.01
2023-05-06T15:28:07.891Z,1011.03
2023-05-06T15:29:09.582Z,1011.05
2023-05-06T15:30:07.885Z,1011.05
2023-05-06T15:31:07.916Z,1011.06
2023-05-06T15:32:08.156Z,1011.06
2023-05-06T15:33:07.892Z,1011.06
2023-05-06T15:34:07.941Z,1011.06
2023-05-06T15:35:07.964Z,1011.01
2023-05-06T15:36:07.887Z,1011.00
2023-05-06T15:37:07.902Z,1010.97
2023-05-06T15:38:07.934Z,1011.01
2023-05-06T15:39:07.927Z,1010.99
2023-05-06T15:40:07.978Z,1011.01
2023-05-06T15:41:08.002Z,1011.01
2023-05-06T15:42:07.977Z,1010.96
2023-05-06T15:43:07.947Z,1011.03
2023-05-06T15:44:09.932Z,1011.00
2023-05-06T15:45:08.021Z,1011.03
2023-05-06T15:46:08.099Z,1011.04
2023-05-06T15:47:07.988Z,1011.06
2023-05-06T15:48:08.043Z,1011.05
2023-05-06T15:49:39.634Z,1011.05
2023-05-06T15:51:08.065Z,1011.02
2023-05-06T15:52:07.987Z,1011.02
2023-05-06T15:53:07.964Z,1011.04
2023-05-06T15:54:08.071Z,1011.03
2023-05-06T15:55:08.009Z,1011.03
2023-05-06T15:56:17.753Z,1011.04
2023-05-06T15:57:08.044Z,1011.04
2023-05-06T15:58:07.998Z,1011.10
2023-05-06T15:59:08.029Z,1011.10
2023-05-06T16:00:08.095Z,1011.04
2023-05-06T16:01:08.085Z,1011.06
2023-05-06T16:12:46.998Z,1011.11
2023-05-06T16:13:46.837Z,1011.13
2023-05-06T16:14:46.859Z,1011.09
2023-05-06T16:15:46.906Z,1011.09
2023-05-06T16:16:46.925Z,1011.05
2023-05-06T16:17:46.897Z,1011.08
2023-05-06T16:18:46.836Z,1011.04
2023-05-06T16:19:46.850Z,1011.06
2023-05-06T16:20:46.841Z,1011.05
2023-05-06T16:21:46.838Z,1011.09
2023-05-06T16:22:46.830Z,1011.10
2023-05-06T16:23:46.858Z,1011.11
2023-05-06T16:24:46.840Z,1011.10
2023-05-06T16:25:46.835Z,1011.08
2023-05-06T16:26:46.851Z,1011.10
2023-05-06T16:27:46.857Z,1011.09
2023-05-06T16:28:46.927Z,1011.10
2023-05-06T16:29:46.853Z,1011.13
2023-05-06T16:30:46.866Z,1011.11
2023-05-06T16:31:46.976Z,1011.10